Time;durP1;ratioP1;P1;durP2;ratioP2;P2;SDS_P1;SDS_P2;PMS_P1;PMS_P2;Temp;Humidity;BMP_temperature;BMP_pressure;BME280_temperature;BME280_humidity;BME280_pressure;Samples;Min_cycle;Max_cycle;Signal;HPM_P1;HPM_P2
2022/01/26 00:00:29;;;;;;;0.10;0.10;;;3.40;99.90;;;;;;5147434;28;20049;-85
2022/01/26 00:07:56;;;;;;;0.10;0.10;;;3.10;99.90;;;;;;5147329;28;20074;-80
2022/01/26 00:10:23;;;;;;;0.10;0.10;;;3.10;99.90;;;;;;5130545;28;20035;-85
2022/01/26 00:12:50;;;;;;;0.30;0.30;;;3.10;99.90;;;;;;5096544;28;20100;-85
2022/01/26 00:15:17;;;;;;;1.75;0.85;;;3.10;99.90;;;;;;5130390;28;20050;-81
2022/01/26 00:17:45;;;;;;;0.10;0.10;;;3.00;99.90;;;;;;5130311;28;20027;-81
2022/01/26 00:38:46;;;;;;;0.10;0.10;;;3.00;99.90;;;;;;5147153;28;20040;-86
2022/01/26 00:41:18;;;;;;;0.32;0.20;;;3.00;99.90;;;;;;5114797;28;20094;-85
2022/01/26 00:43:54;;;;;;;0.10;0.10;;;3.10;99.90;;;;;;5113591;28;20116;-86
2022/01/26 00:46:22;;;;;;;0.20;0.20;;;3.00;99.90;;;;;;5130532;28;20052;-85
2022/01/26 00:48:50;;;;;;;0.10;0.10;;;3.00;99.90;;;;;;5112959;28;20039;-85
2022/01/26 00:51:20;;;;;;;0.10;0.10;;;3.00;99.90;;;;;;5129997;28;20441;-85
2022/01/26 00:53:53;;;;;;;0.30;0.30;;;3.00;99.90;;;;;;5146956;28;20086;-81
2022/01/26 00:56:20;;;;;;;0.10;0.10;;;2.90;99.90;;;;;;5129801;28;20071;-86
2022/01/26 00:58:48;;;;;;;0.10;0.10;;;2.90;99.90;;;;;;5113373;28;20071;-80
2022/01/26 01:01:15;;;;;;;0.10;0.10;;;2.90;99.90;;;;;;5129548;28;20062;-80
2022/01/26 01:03:45;;;;;;;0.20;0.20;;;3.00;99.90;;;;;;5146991;28;20055;-81
2022/01/26 01:06:18;;;;;;;0.10;0.10;;;3.40;99.90;;;;;;5113232;28;20119;-85
2022/01/26 01:08:46;;;;;;;0.10;0.10;;;3.20;99.90;;;;;;5129549;28;20535;-86
2022/01/26 01:11:14;;;;;;;0.10;0.10;;;2.90;99.90;;;;;;5129661;28;20118;-85
2022/01/26 01:13:42;;;;;;;0.43;0.43;;;2.90;99.90;;;;;;5112869;28;20062;-85
2022/01/26 01:16:16;;;;;;;0.10;0.10;;;3.00;99.90;;;;;;5095863;28;20036;-85
2022/01/26 01:22:26;;;;;;;0.10;0.10;;;2.90;99.90;;;;;;5096665;28;20090;-80
2022/01/26 01:27:42;;;;;;;0.10;0.10;;;2.90;99.90;;;;;;5112753;28;20056;-81
2022/01/26 01:32:54;;;;;;;0.17;0.17;;;2.90;99.90;;;;;;5146254;28;20044;-80
2022/01/26 01:35:23;;;;;;;0.10;0.10;;;2.90;99.90;;;;;;5146347;28;20396;-80
2022/01/26 01:37:50;;;;;;;0.43;0.43;;;3.50;99.90;;;;;;5096228;28;20032;-85
2022/01/26 01:40:17;;;;;;;0.20;0.20;;;2.90;99.90;;;;;;5128806;28;20094;-85
2022/01/26 01:42:43;;;;;;;0.10;0.10;;;2.90;99.90;;;;;;5112061;28;20090;-80
2022/01/26 01:45:10;;;;;;;0.10;0.10;;;2.80;99.90;;;;;;5115620;28;20083;-80
2022/01/26 01:47:37;;;;;;;0.10;0.10;;;2.80;99.90;;;;;;5116187;28;20075;-84
2022/01/26 01:50:10;;;;;;;0.10;0.10;;;2.90;99.90;;;;;;5115965;28;20040;-85
2022/01/26 01:52:37;;;;;;;0.20;0.20;;;2.90;99.90;;;;;;5133135;28;20036;-81
2022/01/26 01:55:05;;;;;;;0.10;0.10;;;2.80;99.90;;;;;;5115668;28;20126;-80
2022/01/26 01:57:32;;;;;;;0.10;0.10;;;2.80;99.90;;;;;;5115961;28;20484;-80
2022/01/26 01:59:59;;;;;;;0.10;0.10;;;4.00;99.90;;;;;;5149663;28;20036;-85
2022/01/26 02:02:26;;;;;;;0.10;0.10;;;3.30;99.90;;;;;;5132869;28;20051;-80
2022/01/26 02:04:52;;;;;;;0.10;0.10;;;3.20;99.90;;;;;;5116206;28;20036;-85
2022/01/26 02:07:19;;;;;;;0.10;0.10;;;3.30;99.90;;;;;;5115869;28;20042;-80
2022/01/26 02:09:46;;;;;;;0.10;0.10;;;3.50;99.90;;;;;;5099143;28;20089;-85
2022/01/26 02:12:21;;;;;;;0.20;0.20;;;2.80;99.90;;;;;;5115645;28;20046;-80
2022/01/26 02:14:53;;;;;;;0.10;0.10;;;3.70;99.90;;;;;;5116279;28;20039;-80
2022/01/26 02:53:40;;;;;;;0.15;0.15;;;2.70;99.90;;;;;;5118016;28;20098;-82
2022/01/26 02:56:08;;;;;;;0.10;0.10;;;2.80;99.90;;;;;;5116421;28;20032;-80
2022/01/26 03:01:43;;;;;;;0.38;0.38;;;2.70;99.90;;;;;;5113786;28;20047;-80
2022/01/26 03:04:20;;;;;;;1.15;0.52;;;2.60;99.90;;;;;;5113748;28;20048;-85
2022/01/26 03:09:18;;;;;;;0.10;0.10;;;2.70;99.90;;;;;;5110727;28;20040;-80
2022/01/26 03:11:46;;;;;;;0.10;0.10;;;2.60;99.90;;;;;;5128330;28;20036;-85
2022/01/26 03:14:45;;;;;;;0.10;0.10;;;2.60;99.90;;;;;;5111314;28;20105;-85
2022/01/26 03:19:50;;;;;;;0.10;0.10;;;2.60;99.90;;;;;;5113792;28;20043;-85
2022/01/26 03:30:47;;;;;;;16.45;0.68;;;2.50;99.90;;;;;;5127621;28;20044;-80
2022/01/26 03:33:46;;;;;;;0.20;0.20;;;2.50;99.90;;;;;;5114081;28;20055;-85
2022/01/26 03:36:11;;;;;;;0.20;0.20;;;2.50;99.90;;;;;;5114113;28;20401;-80
2022/01/26 03:38:43;;;;;;;0.10;0.10;;;2.50;99.90;;;;;;5111735;28;20684;-80
2022/01/26 03:43:43;;;;;;;0.10;0.10;;;2.50;99.90;;;;;;5111518;28;20044;-85
2022/01/26 03:46:10;;;;;;;0.40;0.30;;;2.60;99.90;;;;;;5126950;28;20081;-84
2022/01/26 03:48:37;;;;;;;0.10;0.10;;;2.50;99.90;;;;;;5110357;28;20036;-80
2022/01/26 03:51:04;;;;;;;0.10;0.10;;;3.00;99.90;;;;;;5110395;28;20047;-80
2022/01/26 03:53:31;;;;;;;0.15;0.15;;;2.50;99.90;;;;;;5126995;28;20463;-85
2022/01/26 03:55:58;;;;;;;0.10;0.10;;;2.50;99.90;;;;;;5127208;28;20571;-85
2022/01/26 03:58:25;;;;;;;0.30;0.30;;;3.10;99.90;;;;;;5126875;28;20036;-86
2022/01/26 04:00:52;;;;;;;0.15;0.15;;;3.50;99.90;;;;;;5110598;28;20492;-80
2022/01/26 04:03:19;;;;;;;0.15;0.15;;;2.40;99.90;;;;;;5109975;28;20498;-80
2022/01/26 04:05:45;;;;;;;0.10;0.10;;;2.50;99.90;;;;;;5109755;28;20124;-80
2022/01/26 04:08:21;;;;;;;0.13;0.13;;;2.50;99.90;;;;;;5109864;28;20046;-81
2022/01/26 04:13:23;;;;;;;;;;;3.00;99.90;;;;;;5111498;28;20492;-85
2022/01/26 04:15:50;;;;;;;0.10;0.10;;;2.90;99.90;;;;;;5093373;28;19916;-85
2022/01/26 04:18:23;;;;;;;0.10;0.10;;;3.10;99.90;;;;;;5126661;28;20044;-85
2022/01/26 04:20:53;;;;;;;0.20;0.20;;;2.90;99.90;;;;;;5110816;28;20778;-80
2022/01/26 04:23:33;;;;;;;0.10;0.10;;;2.50;99.90;;;;;;5126385;28;20567;-85
2022/01/26 04:25:59;;;;;;;0.25;0.25;;;2.70;99.90;;;;;;5126895;28;20047;-85
2022/01/26 04:28:28;;;;;;;0.13;0.13;;;2.40;99.90;;;;;;5109401;28;20046;-80
2022/01/26 04:30:55;;;;;;;0.20;0.20;;;2.40;99.90;;;;;;5109964;28;20471;-80
2022/01/26 04:33:22;;;;;;;0.10;0.10;;;2.40;99.90;;;;;;5092939;28;20081;-80
2022/01/26 04:35:49;;;;;;;0.13;0.13;;;2.40;99.90;;;;;;5121348;28;20039;-84
2022/01/26 04:38:25;;;;;;;0.20;0.20;;;2.40;99.90;;;;;;5113581;28;20036;-81
2022/01/26 04:41:07;;;;;;;0.13;0.13;;;3.40;99.90;;;;;;5095717;28;20565;-80
2022/01/26 04:43:37;;;;;;;0.65;0.65;;;2.40;99.90;;;;;;5097212;28;20488;-80
2022/01/26 04:46:05;;;;;;;0.20;0.20;;;2.40;99.90;;;;;;5093911;28;20040;-85
2022/01/26 04:48:32;;;;;;;0.10;0.10;;;2.40;99.90;;;;;;5092821;28;20180;-85
2022/01/26 04:50:59;;;;;;;0.10;0.10;;;2.40;99.90;;;;;;5126583;28;20123;-80
2022/01/26 04:53:25;;;;;;;0.10;0.10;;;2.40;99.90;;;;;;5092877;28;20484;-85
2022/01/26 04:55:52;;;;;;;0.10;0.10;;;2.40;99.90;;;;;;5076417;28;20036;-80
2022/01/26 04:58:20;;;;;;;0.10;0.10;;;3.00;99.90;;;;;;5093106;28;20038;-81
2022/01/26 05:00:46;;;;;;;0.20;0.20;;;2.80;99.90;;;;;;5076364;28;20040;-81
2022/01/26 05:03:13;;;;;;;0.17;0.17;;;2.70;99.90;;;;;;5093066;28;20047;-80
2022/01/26 05:05:41;;;;;;;0.10;0.10;;;2.30;99.90;;;;;;5076040;28;20085;-85
2022/01/26 05:08:07;;;;;;;0.17;0.17;;;2.30;99.90;;;;;;5092655;28;20048;-85
2022/01/26 05:10:37;;;;;;;0.15;0.15;;;3.20;99.90;;;;;;5075874;28;20047;-80
2022/01/26 05:13:04;;;;;;;0.17;0.17;;;2.40;99.90;;;;;;5093448;28;20039;-85
2022/01/26 05:15:31;;;;;;;0.15;0.15;;;2.40;99.90;;;;;;5092619;28;20040;-84
2022/01/26 05:17:57;;;;;;;0.10;0.10;;;2.40;99.90;;;;;;5128012;28;20040;-85
2022/01/26 05:20:24;;;;;;;0.15;0.15;;;2.40;99.90;;;;;;5079815;28;20040;-81
2022/01/26 05:22:51;;;;;;;0.10;0.10;;;2.40;99.90;;;;;;5096687;28;20045;-85
2022/01/26 05:25:18;;;;;;;0.10;0.10;;;2.40;99.90;;;;;;5113412;28;20036;-85
2022/01/26 05:27:44;;;;;;;0.50;0.50;;;2.40;99.90;;;;;;5113394;28;20043;-80
2022/01/26 05:30:11;;;;;;;2.05;1.00;;;2.40;99.90;;;;;;5096670;28;20428;-85
2022/01/26 05:32:38;;;;;;;0.10;0.10;;;2.30;99.90;;;;;;5098281;28;20034;-80
2022/01/26 05:35:05;;;;;;;0.10;0.10;;;2.30;99.90;;;;;;5096460;28;20036;-80
2022/01/26 05:37:32;;;;;;;0.17;0.17;;;2.30;99.90;;;;;;5096120;28;20040;-85
2022/01/26 05:40:00;;;;;;;0.20;0.20;;;2.40;99.90;;;;;;5113145;28;20173;-80
2022/01/26 05:42:27;;;;;;;0.20;0.20;;;2.30;99.90;;;;;;5096370;28;20569;-85
2022/01/26 05:44:59;;;;;;;0.10;0.10;;;2.30;99.90;;;;;;5079797;28;20082;-85
2022/01/26 05:47:25;;;;;;;0.17;0.17;;;2.30;99.90;;;;;;5097560;28;20519;-85
2022/01/26 05:49:52;;;;;;;0.10;0.10;;;2.50;99.90;;;;;;5096311;28;20040;-85
2022/01/26 05:52:19;;;;;;;2.55;1.00;;;2.30;99.90;;;;;;5095964;28;20044;-80
2022/01/26 05:54:45;;;;;;;0.10;0.10;;;2.30;99.90;;;;;;5112702;28;20042;-85
2022/01/26 05:57:12;;;;;;;0.10;0.10;;;2.30;99.90;;;;;;5080148;28;20100;-80
2022/01/26 05:59:39;;;;;;;0.10;0.10;;;2.60;99.90;;;;;;5095841;28;20058;-80
2022/01/26 06:02:05;;;;;;;0.10;0.10;;;3.00;99.90;;;;;;5096150;28;20039;-80
2022/01/26 06:04:32;;;;;;;0.20;0.20;;;2.30;99.90;;;;;;5095442;28;20036;-80
2022/01/26 06:06:59;;;;;;;0.20;0.20;;;2.30;99.90;;;;;;5096072;28;20071;-80
2022/01/26 06:09:26;;;;;;;0.20;0.20;;;2.30;99.90;;;;;;5129158;28;20382;-81
2022/01/26 06:11:52;;;;;;;0.15;0.15;;;2.60;99.90;;;;;;5079125;28;20035;-84
2022/01/26 06:14:19;;;;;;;0.20;0.20;;;2.20;99.90;;;;;;5079512;28;20044;-80
2022/01/26 06:16:46;;;;;;;0.10;0.10;;;2.20;99.90;;;;;;5095479;28;20497;-80
2022/01/26 06:19:12;;;;;;;0.15;0.15;;;2.40;99.90;;;;;;5112079;28;20088;-85
2022/01/26 06:21:39;;;;;;;0.43;0.40;;;2.20;99.90;;;;;;5134159;28;20036;-85
2022/01/26 06:24:06;;;;;;;0.10;0.10;;;2.20;99.90;;;;;;5082938;28;20039;-85
2022/01/26 06:26:33;;;;;;;0.10;0.10;;;2.40;99.90;;;;;;5123156;28;20044;-80
2022/01/26 06:29:00;;;;;;;0.30;0.30;;;2.70;99.90;;;;;;5094969;28;20044;-80
2022/01/26 06:31:28;;;;;;;0.10;0.10;;;3.20;99.90;;;;;;5108865;28;20044;-80
2022/01/26 06:33:56;;;;;;;0.10;0.10;;;2.20;99.90;;;;;;5112300;28;20044;-80
2022/01/26 06:36:23;;;;;;;0.10;0.10;;;2.90;99.90;;;;;;5111921;28;20040;-80
2022/01/26 06:38:50;;;;;;;0.10;0.10;;;3.30;99.90;;;;;;5095098;28;20089;-80
2022/01/26 06:41:23;;;;;;;0.10;0.10;;;2.20;99.90;;;;;;5095086;28;20066;-80
2022/01/26 06:43:56;;;;;;;0.10;0.10;;;2.20;99.90;;;;;;5111743;28;20444;-80
2022/01/26 06:46:31;;;;;;;0.20;0.20;;;2.60;99.90;;;;;;5097640;28;20040;-80
2022/01/26 06:51:43;;;;;;;0.10;0.10;;;2.20;99.90;;;;;;5134541;28;20051;-80
2022/01/26 06:54:10;;;;;;;0.20;0.20;;;2.10;99.90;;;;;;5098621;28;20031;-85
2022/01/26 06:56:36;;;;;;;0.10;0.10;;;2.10;99.90;;;;;;5098250;28;20094;-85
2022/01/26 06:59:03;;;;;;;0.10;0.10;;;2.50;99.90;;;;;;5098500;28;20043;-80
2022/01/26 07:01:30;;;;;;;0.20;0.20;;;2.10;99.90;;;;;;5131600;28;20039;-80
2022/01/26 07:03:56;;;;;;;0.10;0.10;;;2.40;99.90;;;;;;5131879;28;20039;-80
2022/01/26 07:06:23;;;;;;;0.20;0.20;;;3.10;99.90;;;;;;5115191;28;20552;-80
2022/01/26 07:08:50;;;;;;;0.20;0.20;;;2.90;99.90;;;;;;5131636;28;20400;-80
2022/01/26 07:11:17;;;;;;;0.13;0.13;;;2.20;99.90;;;;;;5096533;28;20595;-86
2022/01/26 07:13:45;;;;;;;0.10;0.10;;;2.20;99.90;;;;;;5116879;28;20760;-86
2022/01/26 07:21:42;;;;;;;0.10;0.10;;;2.70;99.90;;;;;;5119362;28;20130;-84
2022/01/26 07:24:08;;;;;;;0.30;0.30;;;2.20;99.90;;;;;;5114976;28;20081;-85
2022/01/26 07:26:37;;;;;;;0.65;0.57;;;2.70;99.90;;;;;;5097514;28;20133;-81
2022/01/26 07:29:10;;;;;;;0.20;0.20;;;3.10;99.90;;;;;;5131431;28;20055;-85
2022/01/26 07:31:43;;;;;;;2.17;0.65;;;2.20;99.90;;;;;;5130632;28;20039;-85
2022/01/26 07:34:14;;;;;;;0.10;0.10;;;2.80;99.90;;;;;;5148764;28;20035;-85
2022/01/26 07:36:44;;;;;;;0.10;0.10;;;3.10;99.90;;;;;;5147742;28;20042;-81
2022/01/26 07:39:15;;;;;;;0.10;0.10;;;2.20;99.90;;;;;;5110415;28;20173;-85
2022/01/26 07:41:41;;;;;;;0.10;0.10;;;2.20;99.90;;;;;;5077040;28;20055;-80
2022/01/26 07:44:08;;;;;;;0.30;0.30;;;2.20;99.90;;;;;;5100019;28;20504;-80
2022/01/26 07:46:35;;;;;;;0.45;0.45;;;2.20;99.90;;;;;;5109868;28;20110;-84
2022/01/26 07:49:02;;;;;;;0.10;0.10;;;2.20;99.90;;;;;;5109815;28;20079;-80
2022/01/26 07:51:30;;;;;;;0.63;0.63;;;2.90;99.90;;;;;;5126977;28;20047;-83
2022/01/26 07:53:57;;;;;;;0.15;0.15;;;2.20;99.90;;;;;;5108122;28;20035;-80
2022/01/26 07:56:24;;;;;;;0.13;0.13;;;2.90;99.90;;;;;;5076956;28;20396;-85
2022/01/26 07:58:50;;;;;;;1.65;0.50;;;2.20;99.90;;;;;;5076387;28;20481;-85
2022/01/26 08:01:17;;;;;;;0.20;0.20;;;2.20;99.90;;;;;;5118047;28;20043;-80
2022/01/26 08:03:44;;;;;;;0.20;0.20;;;2.20;99.90;;;;;;5092682;28;20051;-80
2022/01/26 08:06:15;;;;;;;0.10;0.10;;;2.30;99.90;;;;;;5088102;28;20039;-80
2022/01/26 08:08:42;;;;;;;0.20;0.20;;;2.20;99.90;;;;;;5126262;28;20081;-86
2022/01/26 08:11:09;;;;;;;0.40;0.40;;;2.20;99.90;;;;;;5131438;28;20090;-86
2022/01/26 08:13:36;;;;;;;0.13;0.13;;;2.30;99.90;;;;;;5101601;28;20039;-82
2022/01/26 08:16:03;;;;;;;0.10;0.10;;;2.90;99.90;;;;;;5092693;28;20036;-80
2022/01/26 08:18:30;;;;;;;0.25;0.25;;;2.30;99.90;;;;;;5093399;28;20040;-85
2022/01/26 08:21:04;;;;;;;0.10;0.10;;;2.30;99.90;;;;;;5095302;28;20036;-86
2022/01/26 08:23:31;;;;;;;0.15;0.15;;;3.20;99.90;;;;;;5094098;28;20078;-86
2022/01/26 08:25:58;;;;;;;0.20;0.20;;;2.70;99.90;;;;;;5106598;28;20043;-80
2022/01/26 08:28:38;;;;;;;0.10;0.10;;;2.30;99.90;;;;;;5102410;28;20429;-80
2022/01/26 08:31:05;;;;;;;0.20;0.20;;;2.60;99.90;;;;;;5117436;28;20036;-87
2022/01/26 08:33:32;;;;;;;0.20;0.20;;;3.00;99.90;;;;;;5122595;28;20036;-82
2022/01/26 08:35:59;;;;;;;0.10;0.10;;;2.80;99.90;;;;;;5112337;28;20094;-81
2022/01/26 08:38:26;;;;;;;0.10;0.10;;;3.20;99.90;;;;;;5110519;28;20075;-81
2022/01/26 08:40:53;;;;;;;0.13;0.13;;;2.70;99.90;;;;;;5112844;28;20086;-86
2022/01/26 08:43:20;;;;;;;0.20;0.20;;;2.30;99.90;;;;;;5107467;28;20071;-85
2022/01/26 08:45:47;;;;;;;0.30;0.30;;;2.40;99.90;;;;;;5128972;28;20046;-85
2022/01/26 08:48:14;;;;;;;0.20;0.20;;;3.20;99.90;;;;;;5113377;28;20050;-81
2022/01/26 08:50:40;;;;;;;0.15;0.15;;;3.00;99.90;;;;;;5127889;28;20036;-82
2022/01/26 08:53:07;;;;;;;0.40;0.40;;;2.30;99.90;;;;;;5136228;28;20036;-85
2022/01/26 08:55:36;;;;;;;0.57;0.57;;;2.40;99.90;;;;;;5127382;28;20060;-87
2022/01/26 08:58:04;;;;;;;0.20;0.20;;;2.40;99.90;;;;;;5094369;28;20044;-86
2022/01/26 09:00:30;;;;;;;0.22;0.22;;;2.40;99.90;;;;;;5110019;28;20036;-86
2022/01/26 09:02:57;;;;;;;0.22;0.22;;;2.90;99.90;;;;;;5100700;28;20048;-86
2022/01/26 09:05:24;;;;;;;0.10;0.10;;;2.50;99.90;;;;;;5086615;28;20037;-86
2022/01/26 09:07:55;;;;;;;0.10;0.10;;;2.40;99.90;;;;;;5092294;28;20462;-87
2022/01/26 09:10:25;;;;;;;0.10;0.10;;;2.40;99.90;;;;;;5110564;28;20043;-86
2022/01/26 09:12:52;;;;;;;0.20;0.20;;;3.30;99.90;;;;;;5093248;28;20109;-86
2022/01/26 09:15:26;;;;;;;0.20;0.20;;;3.30;99.90;;;;;;5093466;28;20036;-87
2022/01/26 09:17:54;;;;;;;0.10;0.10;;;2.50;99.90;;;;;;5094261;28;20145;-87
2022/01/26 09:20:20;;;;;;;0.10;0.10;;;2.50;99.90;;;;;;5093429;28;20096;-86
2022/01/26 09:22:47;;;;;;;0.10;0.10;;;2.50;99.90;;;;;;5092826;28;20449;-86
2022/01/26 09:25:14;;;;;;;0.10;0.10;;;2.50;99.90;;;;;;5110079;28;20032;-86
2022/01/26 09:27:41;;;;;;;0.10;0.10;;;2.90;99.90;;;;;;5110032;28;20546;-86
2022/01/26 09:30:09;;;;;;;0.13;0.13;;;2.50;99.90;;;;;;5109497;28;20093;-86
2022/01/26 09:32:36;;;;;;;0.10;0.10;;;2.50;99.90;;;;;;5093027;28;20036;-86
2022/01/26 09:35:06;;;;;;;0.10;0.10;;;2.50;99.90;;;;;;5092700;28;20043;-86
2022/01/26 09:37:33;;;;;;;0.10;0.10;;;2.50;99.90;;;;;;5109540;28;20105;-86
2022/01/26 09:40:00;;;;;;;0.10;0.10;;;2.60;99.90;;;;;;5109556;28;20476;-86
2022/01/26 09:42:26;;;;;;;0.10;0.10;;;3.10;99.90;;;;;;5109600;28;20101;-86
2022/01/26 09:44:53;;;;;;;0.40;0.40;;;2.60;99.90;;;;;;5092853;28;20070;-86
2022/01/26 09:47:21;;;;;;;0.10;0.10;;;2.60;99.90;;;;;;5109839;28;20043;-86
2022/01/26 09:49:49;;;;;;;0.03;0.03;;;2.60;99.90;;;;;;5093269;28;20123;-87
2022/01/26 09:52:23;;;;;;;0.20;0.20;;;3.20;99.90;;;;;;5093087;28;20044;-87
2022/01/26 09:54:50;;;;;;;0.10;0.10;;;2.60;99.90;;;;;;5093723;28;20032;-86
2022/01/26 09:57:16;;;;;;;0.20;0.20;;;2.60;99.90;;;;;;5093129;28;20564;-86
2022/01/26 09:59:43;;;;;;;0.10;0.10;;;2.70;99.90;;;;;;5093004;28;20500;-86
2022/01/26 10:02:20;;;;;;;0.10;0.10;;;2.70;99.90;;;;;;5092618;28;20401;-86
2022/01/26 10:04:47;;;;;;;0.10;0.10;;;2.70;99.90;;;;;;5093919;28;20059;-86
2022/01/26 10:18:16;;;;;;;0.20;0.20;;;2.90;99.90;;;;;;5114850;28;20040;-86
2022/01/26 10:20:51;;;;;;;0.10;0.10;;;2.90;99.90;;;;;;5113184;28;20036;-86
2022/01/26 10:23:20;;;;;;;0.20;0.20;;;2.90;99.90;;;;;;5112752;28;20035;-86
2022/01/26 10:25:59;;;;;;;0.10;0.10;;;2.90;99.90;;;;;;5129517;28;20040;-86
2022/01/26 10:28:26;;;;;;;0.93;0.93;;;3.00;99.90;;;;;;5112536;28;20051;-86
2022/01/26 10:30:52;;;;;;;0.10;0.10;;;3.90;99.90;;;;;;5096971;28;20032;-87
2022/01/26 10:33:19;;;;;;;0.10;0.10;;;3.40;99.90;;;;;;5111160;28;20689;-86
2022/01/26 10:35:46;;;;;;;0.20;0.20;;;3.00;99.90;;;;;;5095752;28;20122;-87
2022/01/26 10:38:14;;;;;;;0.10;0.10;;;3.00;99.90;;;;;;5095783;28;20048;-86
2022/01/26 10:40:40;;;;;;;0.20;0.20;;;3.00;99.90;;;;;;5112106;28;20063;-87
2022/01/26 10:43:11;;;;;;;0.20;0.20;;;4.30;99.90;;;;;;5095575;28;20044;-93
2022/01/26 10:45:46;;;;;;;0.10;0.10;;;3.10;99.90;;;;;;5104792;28;20047;-93
2022/01/26 10:48:53;;;;;;;0.20;0.20;;;3.10;99.90;;;;;;5131175;28;20044;-86
2022/01/26 10:51:42;;;;;;;0.17;0.17;;;3.20;99.90;;;;;;5140327;28;20044;-94
2022/01/26 10:54:21;;;;;;;0.10;0.10;;;3.90;99.90;;;;;;5105902;28;20032;-93
2022/01/26 10:56:49;;;;;;;0.10;0.10;;;4.10;99.90;;;;;;5109567;28;20035;-93
2022/01/26 10:59:16;;;;;;;0.20;0.20;;;4.00;99.90;;;;;;5149494;28;20039;-86
2022/01/26 11:01:43;;;;;;;0.10;0.10;;;3.30;99.90;;;;;;5124400;28;20078;-93
2022/01/26 11:04:13;;;;;;;0.10;0.10;;;3.20;99.90;;;;;;5122115;28;20068;-93
2022/01/26 11:06:43;;;;;;;0.10;0.10;;;3.30;99.90;;;;;;5113442;28;20051;-91
2022/01/26 11:09:13;;;;;;;0.10;0.10;;;3.80;99.90;;;;;;5111873;28;20126;-94
2022/01/26 11:11:40;;;;;;;0.20;0.20;;;3.70;99.90;;;;;;5095622;28;20040;-86
2022/01/26 11:14:15;;;;;;;0.28;0.28;;;3.30;99.90;;;;;;5135739;28;20059;-86
2022/01/26 11:16:53;;;;;;;0.20;0.20;;;3.40;99.90;;;;;;5132901;28;20040;-86
2022/01/26 11:19:21;;;;;;;0.10;0.10;;;3.40;99.90;;;;;;5132538;28;20031;-92
2022/01/26 11:21:48;;;;;;;0.10;0.10;;;3.40;99.90;;;;;;5129819;28;20087;-87
2022/01/26 11:24:19;;;;;;;0.10;0.10;;;4.40;99.90;;;;;;5115656;28;20512;-86
2022/01/26 11:27:01;;;;;;;0.10;0.10;;;3.40;99.90;;;;;;5132412;28;20369;-93
2022/01/26 11:29:33;;;;;;;0.10;0.10;;;3.40;99.90;;;;;;5120651;28;20044;-85
2022/01/26 11:32:18;;;;;;;0.10;0.10;;;3.40;99.90;;;;;;5132437;28;20039;-89
2022/01/26 11:34:49;;;;;;;0.55;0.55;;;3.50;99.90;;;;;;5121618;28;20036;-86
2022/01/26 11:37:19;;;;;;;0.20;0.20;;;3.50;99.90;;;;;;5115920;28;20034;-86
2022/01/26 11:45:36;;;;;;;0.10;0.10;;;3.60;99.90;;;;;;5113005;28;20040;-93
2022/01/26 11:48:08;;;;;;;0.10;0.10;;;4.10;99.90;;;;;;5111664;28;20528;-87
2022/01/26 11:50:42;;;;;;;0.10;0.10;;;3.60;99.90;;;;;;5129773;28;20074;-87
2022/01/26 11:53:16;;;;;;;0.20;0.20;;;3.60;99.90;;;;;;5131927;28;20400;-92
2022/01/26 11:55:49;;;;;;;0.45;0.45;;;3.50;99.90;;;;;;5111038;28;20550;-92
2022/01/26 11:58:32;;;;;;;0.00;0.00;;;4.20;99.90;;;;;;5095463;28;20480;-92
2022/01/26 12:01:25;;;;;;;0.10;0.10;;;3.50;99.90;;;;;;5112114;28;20805;-86
2022/01/26 12:04:03;;;;;;;0.20;0.20;;;3.60;99.90;;;;;;5112415;28;20043;-92
2022/01/26 12:06:36;;;;;;;0.10;0.10;;;2.80;99.90;;;;;;5117510;28;20048;-86
2022/01/26 12:09:06;;;;;;;0.10;0.10;;;3.60;99.90;;;;;;5114916;28;20051;-86
2022/01/26 12:11:34;;;;;;;0.10;0.10;;;3.50;99.90;;;;;;5124057;28;20092;-86
2022/01/26 12:14:10;;;;;;;0.10;0.10;;;3.50;99.90;;;;;;5113430;28;20036;-86
2022/01/26 12:16:41;;;;;;;;;;;3.50;99.90;;;;;;5126888;28;20114;-86
2022/01/26 12:36:03;;;;;;;0.10;0.10;;;3.80;99.90;;;;;;5111782;28;20047;-92
2022/01/26 12:41:24;;;;;;;0.10;0.10;;;3.80;99.90;;;;;;5141842;28;20056;-93
2022/01/26 12:43:54;;;;;;;0.10;0.10;;;3.80;99.90;;;;;;5114106;28;20044;-86
2022/01/26 12:46:27;;;;;;;0.10;0.10;;;4.30;99.90;;;;;;5122268;28;20071;-92
2022/01/26 12:48:57;;;;;;;0.30;0.30;;;3.80;99.90;;;;;;5125668;28;20123;-91
2022/01/26 12:51:26;;;;;;;0.17;0.17;;;3.80;99.90;;;;;;5122896;28;20044;-92
2022/01/26 12:54:22;;;;;;;0.10;0.10;;;3.80;99.90;;;;;;5111845;28;20043;-93
2022/01/26 12:56:49;;;;;;;0.10;0.10;;;3.90;99.90;;;;;;5097183;28;20048;-86
2022/01/26 12:59:23;;;;;;;0.10;0.10;;;3.80;99.90;;;;;;5111423;28;20040;-87
2022/01/26 13:01:54;;;;;;;0.20;0.20;;;3.80;99.90;;;;;;5130248;28;20514;-89
2022/01/26 13:04:21;;;;;;;0.10;0.10;;;3.80;99.90;;;;;;5127980;28;20086;-89
2022/01/26 13:06:52;;;;;;;1.75;0.55;;;3.80;99.90;;;;;;5110382;28;20420;-85
2022/01/26 13:09:27;;;;;;;0.20;0.20;;;3.80;99.90;;;;;;5125341;28;20043;-85
2022/01/26 13:12:02;;;;;;;0.10;0.10;;;3.80;99.90;;;;;;5130076;28;20036;-88
2022/01/26 13:14:42;;;;;;;0.10;0.10;;;3.90;99.90;;;;;;5130419;28;20071;-86
2022/01/26 13:36:24;;;;;;;0.10;0.10;;;4.10;99.90;;;;;;5127449;28;20040;-89
2022/01/26 13:52:02;;;;;;;0.05;0.05;;;4.70;99.90;;;;;;5129055;28;20582;-85
2022/01/26 14:00:06;;;;;;;0.10;0.10;;;4.00;99.90;;;;;;5118326;28;20420;-86
2022/01/26 14:02:35;;;;;;;0.10;0.10;;;4.00;99.90;;;;;;5121258;28;20039;-84
2022/01/26 14:05:03;;;;;;;0.10;0.10;;;4.00;99.90;;;;;;5085121;28;20135;-90
2022/01/26 14:07:32;;;;;;;0.43;0.35;;;4.00;99.90;;;;;;5114607;28;20106;-93
2022/01/26 14:09:59;;;;;;;0.10;0.10;;;4.30;99.90;;;;;;5131933;28;20043;-85
2022/01/26 14:12:30;;;;;;;0.10;0.10;;;4.10;99.90;;;;;;5126562;28;20050;-84
2022/01/26 14:14:59;;;;;;;0.10;0.10;;;4.60;99.90;;;;;;5113492;28;20040;-89
2022/01/26 14:20:40;;;;;;;3.20;0.65;;;4.00;99.90;;;;;;5150445;28;20043;-81
2022/01/26 14:23:19;;;;;;;0.10;0.10;;;4.10;99.90;;;;;;5149807;28;20130;-88
2022/01/26 14:25:49;;;;;;;0.10;0.10;;;4.00;99.90;;;;;;5083025;28;20051;-87
2022/01/26 14:28:19;;;;;;;0.10;0.10;;;4.10;99.90;;;;;;5080718;28;20523;-88
2022/01/26 14:31:07;;;;;;;0.38;0.38;;;4.30;99.90;;;;;;5079224;28;20051;-85
2022/01/26 14:34:35;;;;;;;0.50;0.50;;;4.10;99.90;;;;;;5098351;28;20035;-89
2022/01/26 14:51:06;;;;;;;0.10;0.10;;;4.10;99.90;;;;;;5119982;28;20496;-87
2022/01/26 15:10:01;;;;;;;0.10;0.10;;;4.10;99.90;;;;;;5148824;28;20039;-83
2022/01/26 16:08:07;;;;;;;0.10;0.10;;;4.20;99.90;;;;;;5096193;28;20048;-85
2022/01/26 16:19:43;;;;;;;0.10;0.10;;;4.30;99.90;;;;;;5145625;28;20130;-88
2022/01/26 16:21:45;;;;;;;0.20;0.20;;;4.30;99.90;;;;;;5112166;28;20043;-88
2022/01/26 16:35:38;;;;;;;0.00;0.00;;;4.30;99.90;;;;;;5130315;28;20040;-87
2022/01/26 16:38:23;;;;;;;0.00;0.00;;;4.30;99.90;;;;;;5115047;28;20103;-88
2022/01/26 17:02:32;;;;;;;0.10;0.10;;;4.50;99.90;;;;;;5118268;28;20040;-84
2022/01/26 17:48:19;;;;;;;0.10;0.10;;;4.50;99.90;;;;;;5131692;28;20782;-86
2022/01/26 18:07:18;;;;;;;0.20;0.20;;;4.50;99.90;;;;;;5113148;28;20487;-87
2022/01/26 18:26:45;;;;;;;0.10;0.10;;;4.50;99.90;;;;;;5099813;28;20283;-85
2022/01/26 18:32:20;;;;;;;1.17;0.40;;;4.60;99.90;;;;;;5115130;28;20040;-85
2022/01/26 18:51:08;;;;;;;0.10;0.10;;;4.70;99.90;;;;;;5114771;28;20040;-88
2022/01/26 18:53:35;;;;;;;0.10;0.10;;;4.70;99.90;;;;;;5114153;28;20077;-87
2022/01/26 18:56:02;;;;;;;0.10;0.10;;;5.20;99.90;;;;;;5109789;28;20476;-88
2022/01/26 18:58:29;;;;;;;0.10;0.10;;;4.60;99.90;;;;;;5097038;28;20068;-84
2022/01/26 19:00:55;;;;;;;0.10;0.10;;;4.60;99.90;;;;;;5098627;28;20071;-89
2022/01/26 19:03:22;;;;;;;0.32;0.32;;;4.70;99.90;;;;;;5098726;28;20035;-87
2022/01/26 19:05:49;;;;;;;0.10;0.10;;;5.10;99.90;;;;;;5132133;28;20078;-85
2022/01/26 19:08:16;;;;;;;0.10;0.10;;;4.70;99.90;;;;;;5132106;28;20374;-86
2022/01/26 19:10:42;;;;;;;0.75;0.45;;;4.80;99.90;;;;;;5098446;28;20040;-85
2022/01/26 19:13:09;;;;;;;0.10;0.10;;;4.70;99.90;;;;;;5132654;28;20036;-86
2022/01/26 19:15:36;;;;;;;4.13;0.50;;;5.40;99.90;;;;;;5114878;28;20498;-85
2022/01/26 19:18:06;;;;;;;0.10;0.10;;;4.70;99.90;;;;;;5115816;28;20078;-88
2022/01/26 19:23:28;;;;;;;0.10;0.10;;;4.70;99.90;;;;;;5116001;28;20849;-85
2022/01/26 19:26:09;;;;;;;0.40;0.40;;;4.80;99.90;;;;;;5135047;28;20079;-88
2022/01/26 19:28:44;;;;;;;0.10;0.10;;;5.20;99.90;;;;;;5117153;28;20039;-87
2022/01/26 19:52:30;;;;;;;0.10;0.10;;;5.00;99.90;;;;;;5134664;28;20077;-88
2022/01/26 19:54:56;;;;;;;0.10;0.10;;;5.00;99.90;;;;;;5097681;28;20564;-88
2022/01/26 19:57:24;;;;;;;0.10;0.10;;;5.00;99.90;;;;;;5114249;28;20027;-87
2022/01/26 19:59:50;;;;;;;0.10;0.10;;;5.10;99.90;;;;;;5150631;28;20495;-87
2022/01/26 20:02:17;;;;;;;0.35;0.35;;;5.50;99.90;;;;;;5114668;28;20032;-85
2022/01/26 20:04:45;;;;;;;0.10;0.10;;;5.10;99.90;;;;;;5114046;28;20043;-85
2022/01/26 20:07:18;;;;;;;0.40;0.40;;;5.10;99.90;;;;;;5098370;28;20058;-88
2022/01/26 20:09:50;;;;;;;0.10;0.10;;;5.10;99.90;;;;;;5147722;28;20074;-88
2022/01/26 20:12:32;;;;;;;0.10;0.10;;;5.10;99.90;;;;;;5131375;28;20116;-85
2022/01/26 20:15:00;;;;;;;0.32;0.25;;;5.10;99.90;;;;;;5115906;28;20032;-87